createdAt,value
2019-03-17T00:00:58.512Z,19.83
2019-03-17T00:01:58.582Z,19.84
2019-03-17T00:02:58.457Z,19.82
2019-03-17T00:03:58.609Z,19.85
2019-03-17T00:04:58.710Z,19.82
2019-03-17T00:05:58.496Z,19.83
2019-03-17T00:06:58.559Z,19.82
2019-03-17T00:07:58.835Z,19.81
2019-03-17T00:08:58.517Z,19.82
2019-03-17T00:09:58.687Z,19.81
2019-03-17T00:10:58.452Z,19.79
2019-03-17T00:11:58.595Z,19.8
2019-03-17T00:12:58.688Z,19.77
2019-03-17T00:13:58.644Z,19.76
2019-03-17T00:15:06.934Z,19.76
2019-03-17T00:15:58.501Z,19.75
2019-03-17T00:16:58.551Z,19.76
2019-03-17T00:17:58.609Z,19.75
2019-03-17T00:18:58.456Z,19.75
2019-03-17T00:19:58.565Z,19.74
2019-03-17T00:20:58.592Z,19.74
2019-03-17T00:21:58.533Z,19.75
2019-03-17T00:22:58.766Z,19.74
2019-03-17T00:23:58.716Z,19.74
2019-03-17T00:25:10.496Z,19.73
2019-03-17T00:25:58.740Z,19.72
2019-03-17T00:26:58.373Z,19.71
2019-03-17T00:27:58.558Z,19.71
2019-03-17T00:28:58.645Z,19.71
2019-03-17T00:29:58.412Z,19.71
2019-03-17T00:30:58.558Z,19.71
2019-03-17T00:31:58.694Z,19.71
2019-03-17T00:32:58.483Z,19.7
2019-03-17T00:33:58.746Z,19.69
2019-03-17T00:34:58.507Z,19.69
2019-03-17T00:35:58.569Z,19.7
2019-03-17T00:36:58.654Z,19.69
2019-03-17T00:37:58.553Z,19.69
2019-03-17T00:38:58.699Z,19.69
2019-03-17T00:39:58.500Z,19.67
2019-03-17T00:40:58.628Z,19.67
2019-03-17T00:41:58.579Z,19.67
2019-03-17T00:42:58.542Z,19.68
2019-03-17T00:43:58.585Z,19.67
2019-03-17T00:44:58.462Z,19.66
2019-03-17T00:45:58.548Z,19.66
2019-03-17T00:46:58.500Z,19.66
2019-03-17T00:47:58.566Z,19.65
2019-03-17T00:48:58.631Z,19.67
2019-03-17T00:49:58.422Z,19.63
2019-03-17T00:50:58.574Z,19.62
2019-03-17T00:51:59.485Z,19.63
2019-03-17T00:52:58.373Z,19.62
2019-03-17T00:53:58.650Z,19.62
2019-03-17T00:54:58.373Z,19.63
2019-03-17T00:55:58.446Z,19.62
2019-03-17T00:56:58.549Z,19.65
2019-03-17T00:58:00.040Z,19.61
2019-03-17T00:58:58.583Z,19.61
2019-03-17T00:59:58.651Z,19.59
2019-03-17T01:00:58.358Z,19.59
2019-03-17T01:01:58.648Z,19.61
2019-03-17T01:02:58.301Z,19.59
2019-03-17T01:03:58.502Z,19.58
2019-03-17T01:04:58.622Z,19.58
2019-03-17T01:05:58.260Z,19.58
2019-03-17T01:06:58.460Z,19.58
2019-03-17T01:07:58.506Z,19.57
2019-03-17T01:08:58.312Z,19.59
2019-03-17T01:09:58.504Z,19.57
2019-03-17T01:10:58.442Z,19.54
2019-03-17T01:11:58.530Z,19.58
2019-03-17T01:12:58.574Z,19.58
2019-03-17T01:13:58.425Z,19.58
2019-03-17T01:14:58.533Z,19.57
2019-03-17T01:15:58.482Z,19.56
2019-03-17T01:16:58.402Z,19.57
2019-03-17T01:17:58.452Z,19.54
2019-03-17T01:18:58.294Z,19.53
2019-03-17T01:19:58.517Z,19.54
2019-03-17T01:20:58.495Z,19.55
2019-03-17T01:21:58.343Z,19.55
2019-03-17T01:22:58.478Z,19.54
2019-03-17T01:23:58.428Z,19.52
2019-03-17T01:24:58.414Z,19.54
2019-03-17T01:25:58.661Z,19.52
2019-03-17T01:26:58.285Z,19.52
2019-03-17T01:27:58.338Z,19.52
2019-03-17T01:28:58.500Z,19.51
2019-03-17T01:29:58.300Z,19.51
2019-03-17T01:30:58.383Z,19.52
2019-03-17T01:31:58.615Z,19.52
2019-03-17T01:32:58.378Z,19.5
2019-03-17T01:33:58.535Z,19.51
2019-03-17T01:35:10.526Z,19.5
2019-03-17T01:35:58.438Z,19.5
2019-03-17T01:36:58.415Z,19.48
2019-03-17T01:37:58.510Z,19.46
2019-03-17T01:38:58.364Z,19.46
2019-03-17T01:39:58.843Z,19.48
2019-03-17T01:40:58.527Z,19.48
2019-03-17T01:41:58.392Z,19.47
2019-03-17T01:42:58.430Z,19.47
2019-03-17T01:43:58.270Z,19.46
2019-03-17T01:44:58.443Z,19.45
2019-03-17T01:45:58.586Z,19.45
2019-03-17T01:46:58.394Z,19.43
2019-03-17T01:47:58.515Z,19.45
2019-03-17T01:48:58.306Z,19.44
2019-03-17T01:49:58.379Z,19.42
2019-03-17T01:50:58.583Z,19.45
2019-03-17T01:51:58.361Z,19.45
2019-03-17T01:52:58.408Z,19.45
2019-03-17T01:53:58.512Z,19.45
2019-03-17T01:54:58.720Z,19.45
2019-03-17T01:55:58.570Z,19.46
2019-03-17T01:56:58.261Z,19.45
2019-03-17T01:57:58.439Z,19.44
2019-03-17T01:58:58.470Z,19.42
2019-03-17T01:59:58.308Z,19.42
2019-03-17T02:00:58.504Z,19.43
2019-03-17T02:01:58.604Z,19.41
2019-03-17T02:02:58.432Z,19.41
2019-03-17T02:03:58.521Z,19.43
2019-03-17T02:04:58.294Z,19.4
2019-03-17T02:05:58.335Z,19.41
2019-03-17T02:06:58.443Z,19.43
2019-03-17T02:07:58.385Z,19.4
2019-03-17T02:08:58.392Z,19.4
2019-03-17T02:09:58.562Z,19.4
2019-03-17T02:10:58.356Z,19.39
2019-03-17T02:11:58.401Z,19.4
2019-03-17T02:12:58.636Z,19.39
2019-03-17T02:13:58.485Z,19.38
2019-03-17T02:14:58.432Z,19.38
2019-03-17T02:15:58.284Z,19.38
2019-03-17T02:16:58.455Z,19.38
2019-03-17T02:17:58.920Z,19.36
2019-03-17T02:18:58.324Z,19.38
2019-03-17T02:19:58.445Z,19.36
2019-03-17T02:20:58.275Z,19.38
2019-03-17T02:21:58.351Z,19.38
2019-03-17T02:22:58.544Z,19.38
2019-03-17T02:23:58.286Z,19.38
2019-03-17T02:24:58.369Z,19.39
2019-03-17T02:25:58.536Z,19.36
2019-03-17T02:26:58.380Z,19.39
2019-03-17T02:27:58.406Z,19.36
2019-03-17T02:28:58.274Z,19.4
2019-03-17T02:29:58.399Z,19.36
2019-03-17T02:30:58.423Z,19.36
2019-03-17T02:31:58.289Z,19.35
2019-03-17T02:32:58.397Z,19.36
2019-03-17T02:33:58.453Z,19.36
2019-03-17T02:34:58.362Z,19.35
2019-03-17T02:35:58.515Z,19.36
2019-03-17T02:36:58.665Z,19.35
2019-03-17T02:37:58.485Z,19.33
2019-03-17T02:38:58.674Z,19.31
2019-03-17T02:39:58.365Z,19.32
2019-03-17T02:40:58.797Z,19.31
2019-03-17T02:41:58.488Z,19.3
2019-03-17T02:42:58.272Z,19.29
2019-03-17T02:43:58.438Z,19.3
2019-03-17T02:44:58.588Z,19.3
2019-03-17T02:45:58.467Z,19.32
2019-03-17T02:46:58.448Z,19.29
2019-03-17T02:47:58.291Z,19.28
2019-03-17T02:48:58.403Z,19.29
2019-03-17T02:49:58.611Z,19.28
2019-03-17T02:50:58.371Z,19.28
2019-03-17T02:51:58.503Z,19.28
2019-03-17T02:52:58.606Z,19.27
2019-03-17T02:53:58.298Z,19.27
2019-03-17T02:54:58.807Z,19.26
2019-03-17T02:55:58.380Z,19.26
2019-03-17T02:56:58.363Z,19.27
2019-03-17T02:57:58.460Z,19.25
2019-03-17T02:58:58.318Z,19.26
2019-03-17T02:59:58.351Z,19.25
2019-03-17T03:00:58.532Z,19.25
2019-03-17T03:01:58.358Z,19.25
2019-03-17T03:02:58.421Z,19.24
2019-03-17T03:03:58.238Z,19.25
2019-03-17T03:04:58.427Z,19.22
2019-03-17T03:05:58.414Z,19.23
2019-03-17T03:06:58.376Z,19.23
2019-03-17T03:07:58.398Z,19.21
2019-03-17T03:08:58.477Z,19.23
2019-03-17T03:09:58.283Z,19.23
2019-03-17T03:10:58.457Z,19.22
2019-03-17T03:11:58.302Z,19.24
2019-03-17T03:12:58.408Z,19.21
2019-03-17T03:13:58.528Z,19.21
2019-03-17T03:14:58.320Z,19.21
2019-03-17T03:15:58.355Z,19.21
2019-03-17T03:16:58.580Z,19.2
2019-03-17T03:17:58.284Z,19.2
2019-03-17T03:18:58.486Z,19.17
2019-03-17T03:19:58.542Z,19.17
2019-03-17T03:20:58.333Z,19.17
2019-03-17T03:21:58.859Z,19.18
2019-03-17T03:22:58.490Z,19.17
2019-03-17T03:23:58.311Z,19.15
2019-03-17T03:24:58.375Z,19.18
2019-03-17T03:25:58.283Z,19.18
2019-03-17T03:26:58.362Z,19.17
2019-03-17T03:27:58.500Z,19.16
2019-03-17T03:28:58.466Z,19.17
2019-03-17T03:29:58.361Z,19.16
2019-03-17T03:30:58.620Z,19.14
2019-03-17T03:31:58.310Z,19.15
2019-03-17T03:32:58.777Z,19.17
2019-03-17T03:33:58.326Z,19.13
2019-03-17T03:34:58.486Z,19.15
2019-03-17T03:36:12.261Z,19.15
2019-03-17T03:36:58.221Z,19.14
2019-03-17T03:37:58.314Z,19.13
2019-03-17T03:38:58.443Z,19.14
2019-03-17T03:39:58.346Z,19.14
2019-03-17T03:40:58.461Z,19.14
2019-03-17T03:41:58.482Z,19.14
2019-03-17T03:42:58.345Z,19.13
2019-03-17T03:43:58.738Z,19.11
2019-03-17T03:44:58.541Z,19.13
2019-03-17T03:45:58.382Z,19.12
2019-03-17T03:46:58.425Z,19.1
2019-03-17T03:47:58.213Z,19.12
2019-03-17T03:48:58.343Z,19.11
2019-03-17T03:49:58.555Z,19.1
2019-03-17T03:50:58.345Z,19.09
2019-03-17T03:51:58.325Z,19.1
2019-03-17T03:52:58.433Z,19.1
2019-03-17T03:53:58.396Z,19.09
2019-03-17T03:54:58.375Z,19.11
2019-03-17T03:55:58.456Z,19.09
2019-03-17T03:56:58.262Z,19.08
2019-03-17T03:57:58.492Z,19.09
2019-03-17T03:58:58.291Z,19.08
2019-03-17T03:59:58.332Z,19.09
2019-03-17T04:00:58.502Z,19.08
2019-03-17T04:01:58.262Z,19.07
2019-03-17T04:02:58.358Z,19.07
2019-03-17T04:03:58.531Z,19.07
2019-03-17T04:04:58.496Z,19.08
2019-03-17T04:05:58.392Z,19.05
2019-03-17T04:06:58.283Z,19.07
2019-03-17T04:07:58.415Z,19.05
2019-03-17T04:08:58.502Z,19.05
2019-03-17T04:09:58.280Z,19.07
2019-03-17T04:10:58.395Z,19.05
2019-03-17T04:11:59.238Z,19.05
2019-03-17T04:12:58.376Z,19.02
2019-03-17T04:13:58.501Z,19.05
2019-03-17T04:14:58.235Z,19.02
2019-03-17T04:15:58.398Z,19.05
2019-03-17T04:16:58.400Z,19.03
2019-03-17T04:17:58.398Z,19.03
2019-03-17T04:18:58.451Z,19.02
2019-03-17T04:19:58.576Z,19.02
2019-03-17T04:20:58.273Z,18.99
2019-03-17T04:21:58.334Z,19.03
2019-03-17T04:22:58.533Z,19.02
2019-03-17T04:23:58.252Z,19.03
2019-03-17T04:24:58.383Z,19
2019-03-17T04:25:58.243Z,19.01
2019-03-17T04:26:58.436Z,19.01
2019-03-17T04:27:58.414Z,19
2019-03-17T04:28:58.207Z,19
2019-03-17T04:29:58.447Z,18.99
2019-03-17T04:30:58.273Z,18.99
2019-03-17T04:31:58.408Z,18.99
2019-03-17T04:32:58.360Z,18.98
2019-03-17T04:33:58.242Z,18.98
2019-03-17T04:34:58.598Z,18.99
2019-03-17T04:35:58.718Z,18.98
2019-03-17T04:36:58.325Z,19.01
2019-03-17T04:37:58.320Z,18.99
2019-03-17T04:38:58.451Z,19.01
2019-03-17T04:39:58.360Z,18.99
2019-03-17T04:40:58.377Z,18.98
2019-03-17T04:41:58.444Z,18.98
2019-03-17T04:42:58.287Z,19
2019-03-17T04:43:58.390Z,19.02
2019-03-17T04:44:58.331Z,19
2019-03-17T04:45:58.373Z,19.01
2019-03-17T04:46:58.535Z,19.03
2019-03-17T04:47:58.214Z,19.01
2019-03-17T04:48:59.400Z,19.01
2019-03-17T04:49:58.418Z,19.02
2019-03-17T04:50:58.267Z,19.02
2019-03-17T04:51:58.342Z,19.05
2019-03-17T04:52:58.275Z,19.03
2019-03-17T04:53:58.276Z,19.05
2019-03-17T04:54:58.448Z,19.07
2019-03-17T04:55:58.272Z,19.06
2019-03-17T04:56:58.378Z,19.07
2019-03-17T04:57:58.644Z,19.09
2019-03-17T04:58:58.275Z,19.09
2019-03-17T04:59:58.419Z,19.1
2019-03-17T05:00:58.432Z,19.13
2019-03-17T05:01:58.260Z,19.11
2019-03-17T05:02:58.479Z,19.12
2019-03-17T05:03:58.153Z,19.14
2019-03-17T05:04:58.405Z,19.16
2019-03-17T05:05:58.505Z,19.16
2019-03-17T05:06:58.271Z,19.17
2019-03-17T05:07:58.352Z,19.18
2019-03-17T05:08:58.514Z,19.18
2019-03-17T05:09:58.265Z,19.21
2019-03-17T05:10:58.566Z,19.23
2019-03-17T05:11:58.576Z,19.23
2019-03-17T05:12:58.261Z,19.17
2019-03-17T05:13:58.387Z,19.08
2019-03-17T05:14:58.326Z,19.01
2019-03-17T05:15:58.253Z,18.94
2019-03-17T05:16:58.439Z,18.84
2019-03-17T05:17:58.265Z,18.74
2019-03-17T05:18:58.306Z,18.67
2019-03-17T05:19:58.448Z,18.63
2019-03-17T05:20:58.297Z,18.56
2019-03-17T05:21:58.286Z,18.5
2019-03-17T05:22:58.470Z,18.52
2019-03-17T05:23:58.290Z,18.53
2019-03-17T05:24:58.445Z,18.54
2019-03-17T05:25:58.209Z,18.58
2019-03-17T05:26:58.287Z,18.62
2019-03-17T05:27:58.319Z,18.66
2019-03-17T05:28:58.260Z,18.7
2019-03-17T05:29:58.366Z,18.76
2019-03-17T05:30:58.509Z,18.78
2019-03-17T05:31:58.262Z,18.83
2019-03-17T05:32:58.379Z,18.86
2019-03-17T05:33:58.403Z,18.89
2019-03-17T05:34:58.267Z,18.94
2019-03-17T05:35:58.372Z,18.96
2019-03-17T05:37:07.245Z,19
2019-03-17T05:37:58.266Z,19.03
2019-03-17T05:38:58.736Z,19.02
2019-03-17T05:39:58.306Z,19.09
2019-03-17T05:40:58.317Z,19.13
2019-03-17T05:41:58.605Z,19.13
2019-03-17T05:42:58.321Z,19.15
2019-03-17T05:43:58.334Z,19.17
2019-03-17T05:44:58.294Z,19.21
2019-03-17T05:45:58.272Z,19.23
2019-03-17T05:46:58.507Z,19.24
2019-03-17T05:47:58.189Z,19.28
2019-03-17T05:48:58.396Z,19.28
2019-03-17T05:49:58.476Z,19.3
2019-03-17T05:50:58.198Z,19.31
2019-03-17T05:51:58.337Z,19.36
2019-03-17T05:52:58.479Z,19.39
2019-03-17T05:53:58.276Z,19.38
2019-03-17T05:54:58.414Z,19.42
2019-03-17T05:55:58.397Z,19.43
2019-03-17T05:56:58.276Z,19.45
2019-03-17T05:57:58.467Z,19.48
2019-03-17T05:58:58.191Z,19.51
2019-03-17T05:59:58.379Z,19.52
2019-03-17T06:00:58.580Z,19.56
2019-03-17T06:01:58.300Z,19.58
2019-03-17T06:02:58.326Z,19.59
2019-03-17T06:03:58.411Z,19.59
2019-03-17T06:04:58.326Z,19.61
2019-03-17T06:05:58.333Z,19.62
2019-03-17T06:06:58.185Z,19.66
2019-03-17T06:07:58.255Z,19.66
2019-03-17T06:08:58.378Z,19.69
2019-03-17T06:09:58.246Z,19.71
2019-03-17T06:10:58.353Z,19.71
2019-03-17T06:11:58.238Z,19.74
2019-03-17T06:12:58.364Z,19.75
2019-03-17T06:13:58.502Z,19.77
2019-03-17T06:14:58.214Z,19.79
2019-03-17T06:15:58.268Z,19.79
2019-03-17T06:16:58.400Z,19.81
2019-03-17T06:17:58.274Z,19.81
2019-03-17T06:18:58.320Z,19.83
2019-03-17T06:19:58.298Z,19.83
2019-03-17T06:20:58.377Z,19.87
2019-03-17T06:22:00.828Z,19.85
2019-03-17T06:22:58.194Z,19.88
2019-03-17T06:23:58.349Z,19.87
2019-03-17T06:24:58.473Z,19.89
2019-03-17T06:25:58.246Z,19.88
2019-03-17T06:26:58.273Z,19.91
2019-03-17T06:27:58.436Z,19.94
2019-03-17T06:28:59.239Z,19.92
2019-03-17T06:29:58.280Z,19.94
2019-03-17T06:30:58.357Z,19.95
2019-03-17T06:31:58.220Z,19.97
2019-03-17T06:32:58.330Z,19.96
2019-03-17T06:33:58.117Z,19.98
2019-03-17T06:34:58.348Z,19.99
2019-03-17T06:35:58.349Z,20.01
2019-03-17T06:36:58.267Z,20
2019-03-17T06:37:58.308Z,20.01
2019-03-17T06:38:58.360Z,20
2019-03-17T06:39:58.273Z,20.02
2019-03-17T06:40:58.333Z,20.02
2019-03-17T06:41:58.434Z,20.03
2019-03-17T06:42:58.359Z,20.02
2019-03-17T06:43:58.712Z,20.05
2019-03-17T06:44:58.179Z,20.04
2019-03-17T06:45:58.261Z,20.04
2019-03-17T06:46:58.459Z,20.07
2019-03-17T06:47:58.352Z,20.05
2019-03-17T06:48:58.349Z,20.07
2019-03-17T06:49:58.343Z,20.07
2019-03-17T06:50:58.180Z,20.09
2019-03-17T06:51:58.352Z,20.11
2019-03-17T06:52:58.449Z,20.1
2019-03-17T06:53:58.329Z,20.07
2019-03-17T06:54:58.314Z,20.1
2019-03-17T06:55:58.159Z,20.11
2019-03-17T06:56:58.292Z,20.11
2019-03-17T06:57:58.416Z,20.13
2019-03-17T06:58:58.315Z,20.12
2019-03-17T06:59:58.305Z,20.15
2019-03-17T07:00:58.363Z,20.13
2019-03-17T07:01:58.183Z,20.15
2019-03-17T07:02:58.359Z,20.13
2019-03-17T07:03:58.449Z,20.15
2019-03-17T07:04:58.311Z,20.15
2019-03-17T07:05:58.332Z,20.14
2019-03-17T07:06:58.167Z,20.16
2019-03-17T07:07:58.328Z,20.17
2019-03-17T07:08:58.475Z,20.17
2019-03-17T07:09:58.166Z,20.17
2019-03-17T07:10:58.286Z,20.19
2019-03-17T07:11:58.482Z,20.19
2019-03-17T07:12:58.180Z,20.2
2019-03-17T07:13:58.375Z,20.2
2019-03-17T07:14:58.196Z,20.19
2019-03-17T07:15:58.312Z,20.2
2019-03-17T07:16:58.361Z,20.22
2019-03-17T07:17:58.205Z,20.2
2019-03-17T07:18:58.392Z,20.22
2019-03-17T07:19:58.365Z,20.24
2019-03-17T07:20:58.256Z,20.25
2019-03-17T07:21:58.248Z,20.27
2019-03-17T07:22:58.485Z,20.26
2019-03-17T07:23:58.334Z,20.25
2019-03-17T07:24:58.287Z,20.27
2019-03-17T07:25:58.216Z,20.28
2019-03-17T07:26:58.206Z,20.27
2019-03-17T07:27:58.254Z,20.3
2019-03-17T07:28:58.195Z,20.28
2019-03-17T07:29:58.269Z,20.3
2019-03-17T07:30:58.295Z,20.31
2019-03-17T07:31:58.269Z,20.3
2019-03-17T07:32:58.562Z,20.31
2019-03-17T07:33:58.315Z,20.31
2019-03-17T07:34:58.157Z,20.32
2019-03-17T07:35:58.301Z,20.33
2019-03-17T07:36:58.462Z,20.35
2019-03-17T07:37:58.216Z,20.33
2019-03-17T07:39:12.686Z,20.34
2019-03-17T07:39:58.477Z,20.35
2019-03-17T07:40:58.261Z,20.34
2019-03-17T07:41:58.398Z,20.34
2019-03-17T07:42:58.160Z,20.36
2019-03-17T07:43:58.239Z,20.35
2019-03-17T07:44:58.328Z,20.35
2019-03-17T07:45:58.200Z,20.37
2019-03-17T07:46:58.244Z,20.36
2019-03-17T07:47:58.555Z,20.36
2019-03-17T07:48:58.213Z,20.37
2019-03-17T07:49:58.393Z,20.36
2019-03-17T07:50:58.403Z,20.39
2019-03-17T07:51:58.202Z,20.39
2019-03-17T07:52:58.277Z,20.37
2019-03-17T07:53:58.475Z,20.39
2019-03-17T07:54:58.353Z,20.39
2019-03-17T07:55:58.367Z,20.4
2019-03-17T07:56:58.590Z,20.37
2019-03-17T07:57:58.875Z,20.37
2019-03-17T07:58:58.295Z,20.4
2019-03-17T07:59:58.153Z,20.39
2019-03-17T08:01:01.588Z,20.4
2019-03-17T08:01:58.435Z,20.41
2019-03-17T08:02:58.285Z,20.42
2019-03-17T08:03:58.391Z,20.41
2019-03-17T08:04:58.374Z,20.42
2019-03-17T08:05:58.392Z,20.43
2019-03-17T08:06:58.259Z,20.41
2019-03-17T08:08:10.221Z,20.43
2019-03-17T08:08:58.174Z,20.44
2019-03-17T08:09:58.273Z,20.43
2019-03-17T08:10:58.341Z,20.43
2019-03-17T08:11:58.228Z,20.45
2019-03-17T08:12:58.376Z,20.43
2019-03-17T08:13:58.180Z,20.44
2019-03-17T08:14:58.248Z,20.44
2019-03-17T08:15:58.398Z,20.45
2019-03-17T08:16:58.151Z,20.45
2019-03-17T08:17:58.205Z,20.45
2019-03-17T08:18:59.570Z,20.45
2019-03-17T08:19:58.223Z,20.48
2019-03-17T08:20:58.250Z,20.45
2019-03-17T08:21:58.418Z,20.45
2019-03-17T08:22:58.243Z,20.46
2019-03-17T08:23:58.265Z,20.46
2019-03-17T08:24:58.371Z,20.45
2019-03-17T08:25:58.296Z,20.45
2019-03-17T08:26:58.374Z,20.47
2019-03-17T08:27:58.227Z,20.47
2019-03-17T08:28:58.332Z,20.48
2019-03-17T08:29:58.299Z,20.48
2019-03-17T08:30:58.148Z,20.48
2019-03-17T08:31:58.238Z,20.48
2019-03-17T08:32:58.352Z,20.49
2019-03-17T08:33:58.160Z,20.48
2019-03-17T08:34:58.317Z,20.49
2019-03-17T08:35:58.157Z,20.5
2019-03-17T08:36:58.192Z,20.49
2019-03-17T08:37:58.336Z,20.51
2019-03-17T08:38:58.206Z,20.51
2019-03-17T08:39:58.493Z,20.5
2019-03-17T08:40:58.494Z,20.53
2019-03-17T08:41:58.228Z,20.51
2019-03-17T08:42:58.288Z,20.51
2019-03-17T08:43:58.219Z,20.5
2019-03-17T08:44:58.301Z,20.51
2019-03-17T08:45:58.450Z,20.51
2019-03-17T08:46:58.130Z,20.51
2019-03-17T08:47:58.974Z,20.5
2019-03-17T08:48:58.340Z,20.5
2019-03-17T08:49:58.280Z,20.53
2019-03-17T08:50:58.371Z,20.51
2019-03-17T08:51:58.111Z,20.51
2019-03-17T08:52:58.331Z,20.51
2019-03-17T08:53:58.338Z,20.51
2019-03-17T08:54:58.243Z,20.54
2019-03-17T08:55:58.163Z,20.51
2019-03-17T08:56:58.378Z,20.53
2019-03-17T08:57:58.298Z,20.51
2019-03-17T08:58:58.245Z,20.51
2019-03-17T08:59:58.085Z,20.49
2019-03-17T09:00:58.225Z,20.53
2019-03-17T09:01:58.554Z,20.51
2019-03-17T09:02:58.229Z,20.51
2019-03-17T09:03:58.321Z,20.51
2019-03-17T09:04:58.332Z,20.51
2019-03-17T09:05:58.268Z,20.53
2019-03-17T09:06:58.336Z,20.53
2019-03-17T09:07:58.202Z,20.53
2019-03-17T09:08:58.186Z,20.51
2019-03-17T09:09:58.362Z,20.51
2019-03-17T09:10:58.211Z,20.5
2019-03-17T09:11:58.252Z,20.5
2019-03-17T09:12:58.082Z,20.55
2019-03-17T09:13:58.455Z,20.53
2019-03-17T09:14:58.402Z,20.53
2019-03-17T09:15:58.145Z,20.51
2019-03-17T09:16:58.290Z,20.51
2019-03-17T09:17:58.286Z,20.54
2019-03-17T09:18:58.142Z,20.54
2019-03-17T09:19:58.277Z,20.53
2019-03-17T09:20:58.171Z,20.54
2019-03-17T09:21:58.123Z,20.53
2019-03-17T09:22:58.342Z,20.55
2019-03-17T09:23:58.342Z,20.55
2019-03-17T09:24:58.309Z,20.55
2019-03-17T09:25:58.631Z,20.54
2019-03-17T09:26:58.197Z,20.51
2019-03-17T09:27:58.176Z,20.53
2019-03-17T09:28:58.597Z,20.54
2019-03-17T09:29:58.188Z,20.54
2019-03-17T09:30:58.365Z,20.55
2019-03-17T09:31:58.270Z,20.57
2019-03-17T09:32:58.215Z,20.57
2019-03-17T09:33:58.275Z,20.57
2019-03-17T09:34:58.212Z,20.56
2019-03-17T09:35:58.354Z,20.57
2019-03-17T09:36:58.425Z,20.59
2019-03-17T09:37:58.157Z,20.58
2019-03-17T09:38:58.304Z,20.58
2019-03-17T09:39:58.093Z,20.61
2019-03-17T09:40:58.291Z,20.6
2019-03-17T09:41:58.448Z,20.61
2019-03-17T09:42:58.249Z,20.6
2019-03-17T09:43:58.239Z,20.6
2019-03-17T09:44:58.427Z,20.61
2019-03-17T09:45:58.275Z,20.62
2019-03-17T09:46:58.252Z,20.64
2019-03-17T09:47:58.359Z,20.63
2019-03-17T09:48:58.143Z,20.66
2019-03-17T09:49:58.366Z,20.66
2019-03-17T09:50:58.349Z,20.65
2019-03-17T09:51:58.197Z,20.66
2019-03-17T09:52:58.240Z,20.7
2019-03-17T09:53:58.115Z,20.68
2019-03-17T09:54:58.203Z,20.69
2019-03-17T09:55:58.246Z,20.7
2019-03-17T09:56:58.130Z,20.71
2019-03-17T09:57:58.172Z,20.73
2019-03-17T09:58:58.318Z,20.72
2019-03-17T09:59:58.046Z,20.72
2019-03-17T10:00:58.133Z,20.74
2019-03-17T10:01:58.225Z,20.75
2019-03-17T10:02:58.055Z,20.75
2019-03-17T10:03:58.279Z,20.75
2019-03-17T10:04:58.265Z,20.75
2019-03-17T10:05:58.098Z,20.78
2019-03-17T10:06:58.478Z,20.79
2019-03-17T10:07:59.430Z,20.79
2019-03-17T10:09:00.770Z,20.8
2019-03-17T10:09:58.251Z,20.81
2019-03-17T10:10:58.333Z,20.83
2019-03-17T10:11:58.360Z,20.83
2019-03-17T10:12:58.248Z,20.85
2019-03-17T10:13:58.150Z,20.84
2019-03-17T10:14:58.164Z,20.83
2019-03-17T10:15:58.465Z,20.87
2019-03-17T10:16:58.187Z,20.85
2019-03-17T10:17:58.312Z,20.88
2019-03-17T10:18:58.432Z,20.88
2019-03-17T10:19:58.222Z,20.88
2019-03-17T10:20:58.232Z,20.88
2019-03-17T10:21:58.074Z,20.87
2019-03-17T10:22:58.409Z,20.9
2019-03-17T10:23:58.275Z,20.91
2019-03-17T10:24:58.217Z,20.89
2019-03-17T10:25:58.246Z,20.91
2019-03-17T10:26:58.394Z,20.91
2019-03-17T10:27:58.310Z,20.92
2019-03-17T10:28:58.661Z,20.91
2019-03-17T10:29:58.073Z,20.92
2019-03-17T10:30:58.186Z,20.93
2019-03-17T10:31:58.290Z,20.94
2019-03-17T10:32:58.277Z,20.95
2019-03-17T10:33:58.407Z,20.95
2019-03-17T10:34:58.349Z,20.96
2019-03-17T10:35:58.158Z,20.96
2019-03-17T10:36:58.499Z,20.96
2019-03-17T10:37:58.261Z,20.95
2019-03-17T10:38:58.169Z,20.96
2019-03-17T10:39:58.193Z,20.98
2019-03-17T10:40:58.054Z,20.98
2019-03-17T10:41:58.202Z,21
2019-03-17T10:42:58.187Z,21
2019-03-17T10:43:58.077Z,20.96
2019-03-17T10:44:58.169Z,21
2019-03-17T10:45:58.218Z,20.99
2019-03-17T10:46:58.217Z,21
2019-03-17T10:47:58.206Z,21
2019-03-17T10:48:58.205Z,21
2019-03-17T10:49:58.062Z,21
2019-03-17T10:50:58.512Z,20.99
2019-03-17T10:51:58.709Z,21
2019-03-17T10:52:58.156Z,20.99
2019-03-17T10:53:58.318Z,20.99
2019-03-17T10:54:58.398Z,21
2019-03-17T10:55:58.159Z,20.96
2019-03-17T10:56:58.457Z,21.01
2019-03-17T10:57:58.192Z,21.01
2019-03-17T10:58:58.345Z,21
2019-03-17T10:59:58.290Z,20.98
2019-03-17T11:00:58.124Z,21
2019-03-17T11:01:58.414Z,21.01
2019-03-17T11:02:58.321Z,21.02
2019-03-17T11:03:58.119Z,21.01
2019-03-17T11:04:58.270Z,21
2019-03-17T11:05:58.273Z,21.01
2019-03-17T11:06:58.175Z,21.02
2019-03-17T11:07:58.321Z,21
2019-03-17T11:08:58.469Z,21
2019-03-17T11:09:58.287Z,21.01
2019-03-17T11:10:58.434Z,20.99
2019-03-17T11:11:58.059Z,21
2019-03-17T11:12:58.403Z,20.98
2019-03-17T11:13:58.249Z,20.99
2019-03-17T11:14:58.283Z,20.99
2019-03-17T11:15:58.379Z,20.96
2019-03-17T11:16:58.400Z,21.01
2019-03-17T11:17:58.122Z,21
2019-03-17T11:18:58.349Z,20.99
2019-03-17T11:19:58.126Z,21
2019-03-17T11:20:58.156Z,21
2019-03-17T11:21:58.258Z,20.99
2019-03-17T11:22:58.221Z,21
2019-03-17T11:23:58.283Z,20.96
2019-03-17T11:24:58.300Z,21.01
2019-03-17T11:25:58.139Z,21
2019-03-17T11:26:58.258Z,21.02
2019-03-17T11:27:58.264Z,21
2019-03-17T11:28:58.159Z,21.01
2019-03-17T11:29:58.237Z,21
2019-03-17T11:30:58.159Z,21
2019-03-17T11:31:58.211Z,21
2019-03-17T11:32:58.360Z,21.01
2019-03-17T11:33:58.257Z,21.01
2019-03-17T11:34:58.373Z,21
2019-03-17T11:35:58.036Z,20.99
2019-03-17T11:36:58.309Z,21.01
2019-03-17T11:37:58.216Z,21
2019-03-17T11:38:58.104Z,21.01
2019-03-17T11:39:58.241Z,21
2019-03-17T11:40:58.236Z,20.99
2019-03-17T11:41:58.128Z,21.01
2019-03-17T11:42:58.260Z,20.99
2019-03-17T11:43:58.135Z,20.99
2019-03-17T11:44:58.143Z,20.98
2019-03-17T11:45:58.189Z,20.99
2019-03-17T11:46:58.148Z,20.99
2019-03-17T11:47:58.152Z,20.98
2019-03-17T11:48:58.151Z,20.99
2019-03-17T11:49:58.048Z,20.98
2019-03-17T11:50:58.152Z,20.99
2019-03-17T11:51:58.193Z,21.01
2019-03-17T11:52:58.061Z,21
2019-03-17T11:53:58.197Z,20.98
2019-03-17T11:54:58.332Z,20.99
2019-03-17T11:55:58.208Z,20.99
2019-03-17T11:56:58.219Z,20.99
2019-03-17T11:57:58.279Z,20.99
2019-03-17T11:58:58.068Z,20.99
2019-03-17T11:59:58.203Z,21.01
2019-03-17T12:00:58.256Z,21
2019-03-17T12:01:58.338Z,21
2019-03-17T12:02:58.263Z,21
2019-03-17T12:03:58.253Z,21
2019-03-17T12:04:58.203Z,20.98
2019-03-17T12:05:58.210Z,20.99
2019-03-17T12:06:58.260Z,20.99
2019-03-17T12:07:58.201Z,20.99
2019-03-17T12:08:58.315Z,21.01
2019-03-17T12:09:58.497Z,21
2019-03-17T12:10:58.218Z,21.01
2019-03-17T12:11:58.278Z,21
2019-03-17T12:12:58.076Z,20.99
2019-03-17T12:13:58.181Z,20.99
2019-03-17T12:14:58.281Z,20.99
2019-03-17T12:15:58.096Z,20.99
2019-03-17T12:16:58.265Z,20.99
2019-03-17T12:17:58.361Z,20.99
2019-03-17T12:18:58.160Z,21.01
2019-03-17T12:19:58.175Z,20.99
2019-03-17T12:20:58.336Z,20.98
2019-03-17T12:22:09.779Z,21
2019-03-17T12:22:58.143Z,21
2019-03-17T12:23:58.255Z,21.01
2019-03-17T12:24:58.125Z,20.99
2019-03-17T12:25:58.245Z,21
2019-03-17T12:26:58.268Z,21
2019-03-17T12:27:58.158Z,20.98
2019-03-17T12:28:58.207Z,20.98
2019-03-17T12:29:58.333Z,21
2019-03-17T12:30:58.213Z,20.99
2019-03-17T12:31:58.172Z,20.98
2019-03-17T12:32:58.101Z,20.99
2019-03-17T12:33:58.168Z,20.96
2019-03-17T12:34:58.205Z,20.96
2019-03-17T12:35:58.150Z,20.99
2019-03-17T12:36:58.237Z,20.98
2019-03-17T12:37:58.320Z,20.98
2019-03-17T12:38:58.367Z,20.98
2019-03-17T12:40:03.589Z,20.98
2019-03-17T12:40:58.211Z,20.98
2019-03-17T12:41:58.154Z,20.96
2019-03-17T12:42:58.149Z,20.96
2019-03-17T12:43:58.334Z,20.95
2019-03-17T12:44:58.229Z,20.96
2019-03-17T12:45:58.218Z,20.98
2019-03-17T12:46:58.043Z,20.99
2019-03-17T12:47:58.121Z,20.98
2019-03-17T12:48:58.230Z,20.99
2019-03-17T12:49:58.100Z,20.99
2019-03-17T12:50:58.170Z,20.99
2019-03-17T12:52:02.682Z,20.98
2019-03-17T12:52:58.050Z,20.99
2019-03-17T12:53:58.355Z,21
2019-03-17T12:54:58.289Z,20.96
2019-03-17T12:55:58.100Z,20.98
2019-03-17T12:56:58.037Z,21.01
2019-03-17T12:57:58.159Z,20.99
2019-03-17T12:58:58.063Z,20.98